Southgate, MI (48195)

09:51 AM EST on decembrie 22, 2014 (GMT -0500)
Castle and Burns St. | Change Station
CLOSE
Current Station
Staţie meteo personală
Location: Southgate, MI
Elevation: 580 ft
Nearby Weather Stations

Elev 580 ft 42.21 °N, 83.19 °W | Updated 44 seconds ago

Cer parţial noros
Cer parţial noros
32.0 °F
Feels Like 32 °F
N
3.0
Vânt variabil Vânt from est
Gusts 3.0 mph

astăzi
High -- | Low -- °F
--% Chance of Precip.
Ieri
High -- | Low -- °F
Precip. -- inch
7:58 AM 5:04 PM
Lună Nouă, 0% visible
Presiunea 30.13 inch
Vizibilitatea 3.0 mile
Nori Few 14000 ft
Nori risipiţi 22000 ft
Vânt rece 32 °F
Punctul de rouă 30 °F
Umiditatea 93%
Precipitaţii 0.00 inch
Adâncimea zăpezii Not available.
UV 0.0 out of 12
Pollen .10 out of 12
Calitatea aerului Not available.
Flu Activity Not available.
METAR KDTW 221353Z 06003KT 3SM BR FEW140 SCT220 M02/M04 A3010 RMK AO2 SLP202 T10221044

More Conditions Fewer Conditions

Presiunea 30.13 inch
Vizibilitatea 3.0 mile
Nori Few 14000 ft
Nori risipiţi 22000 ft
Vânt rece 32 °F
Punctul de rouă 30 °F
Umiditatea 93%
Precipitaţii 0.00 inch
Adâncimea zăpezii Not available.
UV 0.0 out of 12
Pollen .10 out of 12
Calitatea aerului Not available.
Flu Activity Not available.
METAR KDTW 221353Z 06003KT 3SM BR FEW140 SCT220 M02/M04 A3010 RMK AO2 SLP202 T10221044

More Conditions Fewer Conditions

10-Day Weather Forecast

Almanac

Astronomie

Dec. 22, 2014 Răsărit Apus
Timpul Actual
Crepusculul Civil
Crepusculul nautic
Răsărit Astronomic
Luna
Durata zilei lumină
Lungimea zilei
Tomorrow will be .
, % of the Moon is Illuminated

Extremele de azi

State Highs State Lows

Community

WunderPhotos

Upload Photos

1,779,608 photos uploaded!

WunderBlogs® & News

Nearby

Calitatea aerului

  Calitatea aerului Index de calitate a aerului Poluat
Not available.

Adâncimea zapezii

Station Depth Elevation

Earthquake Activity

Oraş Distance Mag. Time & Date
Minimum magnitude displayed is 2.5.

Coastal Water Temperatures

Locul Temperatura

Nearby Weather Stations